Santa Ponca, Spain
Current Conditions -  °F | °C
As of 9:30 AM on Thursday 27 Nov 2014 (Local Time) from LEPA Reporting Station
Scattered Clouds Scattered Clouds  
Wind Chill: 63°   Ceiling: Unl
Heat Index: 63°   Visibility: 6mi
Dew Point: 59°   Wind: 0mph
Humidity: 88%   Direction: NA
Pressure: 29.77"   Gusts: NA
Location:  39.51°N, 2.48°E
Report Text: LEPA 270830Z 00000KT 9999 FEW012TCU SCT016 17/15 Q1008 NOSIG
Loading
Personal Weather Stations






























Interactive Weather Map New forecast layout! Learn more

10-Day Weather Forecast

Advertisements
Track Severe Weather on mobile